sensor_id;sensor_type;location;lat;lon;timestamp;temperature;humidity
6538;DHT22;3302;52.508;13.454;2024-03-02T00:00:19;8.90;99.90
6538;DHT22;3302;52.508;13.454;2024-03-02T00:02:48;8.90;99.90
6538;DHT22;3302;52.508;13.454;2024-03-02T00:05:19;8.80;99.90
6538;DHT22;3302;52.508;13.454;2024-03-02T00:07:57;8.90;99.90
6538;DHT22;3302;52.508;13.454;2024-03-02T00:10:39;8.90;99.90
6538;DHT22;3302;52.508;13.454;2024-03-02T00:13:12;8.90;99.90
6538;DHT22;3302;52.508;13.454;2024-03-02T00:15:49;8.90;99.90
6538;DHT22;3302;52.508;13.454;2024-03-02T00:18:24;8.90;99.90
6538;DHT22;3302;52.508;13.454;2024-03-02T00:20:56;8.90;99.90
6538;DHT22;3302;52.508;13.454;2024-03-02T00:23:23;8.90;99.90
6538;DHT22;3302;52.508;13.454;2024-03-02T00:25:50;8.90;99.90
6538;DHT22;3302;52.508;13.454;2024-03-02T00:28:35;8.90;99.90
6538;DHT22;3302;52.508;13.454;2024-03-02T00:33:34;9.00;99.90
6538;DHT22;3302;52.508;13.454;2024-03-02T00:36:00;9.00;99.90
6538;DHT22;3302;52.508;13.454;2024-03-02T00:38:27;9.00;99.90
6538;DHT22;3302;52.508;13.454;2024-03-02T00:40:54;9.00;99.90
6538;DHT22;3302;52.508;13.454;2024-03-02T00:46:08;9.00;99.90
6538;DHT22;3302;52.508;13.454;2024-03-02T00:48:34;9.00;99.90
6538;DHT22;3302;52.508;13.454;2024-03-02T00:51:05;8.90;99.90
6538;DHT22;3302;52.508;13.454;2024-03-02T00:53:31;8.80;99.90
6538;DHT22;3302;52.508;13.454;2024-03-02T00:55:58;8.80;99.90
6538;DHT22;3302;52.508;13.454;2024-03-02T00:58:25;8.80;99.90
6538;DHT22;3302;52.508;13.454;2024-03-02T01:00:51;8.80;99.90
6538;DHT22;3302;52.508;13.454;2024-03-02T01:03:16;8.80;99.90
6538;DHT22;3302;52.508;13.454;2024-03-02T01:05:43;8.80;99.90
6538;DHT22;3302;52.508;13.454;2024-03-02T01:08:09;8.80;99.90
6538;DHT22;3302;52.508;13.454;2024-03-02T01:10:35;8.80;99.90
6538;DHT22;3302;52.508;13.454;2024-03-02T01:13:01;8.80;99.90
6538;DHT22;3302;52.508;13.454;2024-03-02T01:15:27;8.80;99.90
6538;DHT22;3302;52.508;13.454;2024-03-02T01:17:53;8.80;99.90
6538;DHT22;3302;52.508;13.454;2024-03-02T01:20:18;8.80;99.90
6538;DHT22;3302;52.508;13.454;2024-03-02T01:22:44;8.90;99.90
6538;DHT22;3302;52.508;13.454;2024-03-02T01:25:10;8.90;99.90
6538;DHT22;3302;52.508;13.454;2024-03-02T01:27:36;8.90;99.90
6538;DHT22;3302;52.508;13.454;2024-03-02T01:30:02;8.80;99.90
6538;DHT22;3302;52.508;13.454;2024-03-02T01:32:28;8.90;99.90
6538;DHT22;3302;52.508;13.454;2024-03-02T01:34:53;8.90;99.90
6538;DHT22;3302;52.508;13.454;2024-03-02T01:37:20;8.90;99.90
6538;DHT22;3302;52.508;13.454;2024-03-02T01:39:45;8.80;99.90
6538;DHT22;3302;52.508;13.454;2024-03-02T01:42:11;8.90;99.90
6538;DHT22;3302;52.508;13.454;2024-03-02T01:44:37;8.90;99.90
6538;DHT22;3302;52.508;13.454;2024-03-02T01:47:03;8.80;99.90
6538;DHT22;3302;52.508;13.454;2024-03-02T01:49:28;8.80;99.90
6538;DHT22;3302;52.508;13.454;2024-03-02T01:51:54;8.80;99.90
6538;DHT22;3302;52.508;13.454;2024-03-02T01:54:20;8.80;99.90
6538;DHT22;3302;52.508;13.454;2024-03-02T01:56:46;8.90;99.90
6538;DHT22;3302;52.508;13.454;2024-03-02T01:59:12;8.90;99.90
6538;DHT22;3302;52.508;13.454;2024-03-02T02:01:39;8.90;99.90
6538;DHT22;3302;52.508;13.454;2024-03-02T02:04:05;8.90;99.90
6538;DHT22;3302;52.508;13.454;2024-03-02T02:06:32;8.90;99.90
6538;DHT22;3302;52.508;13.454;2024-03-02T02:08:58;8.80;99.90
6538;DHT22;3302;52.508;13.454;2024-03-02T02:11:25;8.80;99.90
6538;DHT22;3302;52.508;13.454;2024-03-02T02:13:50;8.80;99.90
6538;DHT22;3302;52.508;13.454;2024-03-02T02:16:16;8.80;99.90
6538;DHT22;3302;52.508;13.454;2024-03-02T02:18:42;8.90;99.90
6538;DHT22;3302;52.508;13.454;2024-03-02T02:21:08;8.90;99.90
6538;DHT22;3302;52.508;13.454;2024-03-02T02:23:34;8.80;99.90
6538;DHT22;3302;52.508;13.454;2024-03-02T02:26:00;8.90;99.90
6538;DHT22;3302;52.508;13.454;2024-03-02T02:28:25;8.80;99.90
6538;DHT22;3302;52.508;13.454;2024-03-02T02:30:51;8.80;99.90
6538;DHT22;3302;52.508;13.454;2024-03-02T02:33:17;8.60;99.90
6538;DHT22;3302;52.508;13.454;2024-03-02T02:35:43;8.60;99.90
6538;DHT22;3302;52.508;13.454;2024-03-02T02:38:08;8.60;99.90
6538;DHT22;3302;52.508;13.454;2024-03-02T02:40:34;8.60;99.90
6538;DHT22;3302;52.508;13.454;2024-03-02T02:43:00;8.50;99.90
6538;DHT22;3302;52.508;13.454;2024-03-02T02:45:26;8.40;99.90
6538;DHT22;3302;52.508;13.454;2024-03-02T02:47:52;8.40;99.90
6538;DHT22;3302;52.508;13.454;2024-03-02T02:50:17;8.40;99.90
6538;DHT22;3302;52.508;13.454;2024-03-02T02:52:43;8.40;99.90
6538;DHT22;3302;52.508;13.454;2024-03-02T02:55:10;8.40;99.90
6538;DHT22;3302;52.508;13.454;2024-03-02T02:57:38;8.40;99.90
6538;DHT22;3302;52.508;13.454;2024-03-02T03:00:09;8.40;99.90
6538;DHT22;3302;52.508;13.454;2024-03-02T03:02:38;8.40;99.90
6538;DHT22;3302;52.508;13.454;2024-03-02T03:05:06;8.30;99.90
6538;DHT22;3302;52.508;13.454;2024-03-02T03:07:32;8.30;99.90
6538;DHT22;3302;52.508;13.454;2024-03-02T03:09:59;8.40;99.90
6538;DHT22;3302;52.508;13.454;2024-03-02T03:12:25;8.30;99.90
6538;DHT22;3302;52.508;13.454;2024-03-02T03:14:51;8.30;99.90
6538;DHT22;3302;52.508;13.454;2024-03-02T03:17:17;8.30;99.90
6538;DHT22;3302;52.508;13.454;2024-03-02T03:19:43;8.30;99.90
6538;DHT22;3302;52.508;13.454;2024-03-02T03:22:09;8.30;99.90
6538;DHT22;3302;52.508;13.454;2024-03-02T03:24:35;8.30;99.90
6538;DHT22;3302;52.508;13.454;2024-03-02T03:27:01;8.30;99.90
6538;DHT22;3302;52.508;13.454;2024-03-02T03:29:26;8.40;99.90
6538;DHT22;3302;52.508;13.454;2024-03-02T03:31:52;8.40;99.90
6538;DHT22;3302;52.508;13.454;2024-03-02T03:34:18;8.40;99.90
6538;DHT22;3302;52.508;13.454;2024-03-02T03:36:44;8.40;99.90
6538;DHT22;3302;52.508;13.454;2024-03-02T03:39:09;8.40;99.90
6538;DHT22;3302;52.508;13.454;2024-03-02T03:41:36;8.40;99.90
6538;DHT22;3302;52.508;13.454;2024-03-02T03:44:01;8.40;99.90
6538;DHT22;3302;52.508;13.454;2024-03-02T03:46:27;8.40;99.90
6538;DHT22;3302;52.508;13.454;2024-03-02T03:48:53;8.40;99.90
6538;DHT22;3302;52.508;13.454;2024-03-02T03:51:19;8.40;99.90
6538;DHT22;3302;52.508;13.454;2024-03-02T03:53:44;8.40;99.90
6538;DHT22;3302;52.508;13.454;2024-03-02T03:56:10;8.40;99.90
6538;DHT22;3302;52.508;13.454;2024-03-02T03:58:36;8.40;99.90
6538;DHT22;3302;52.508;13.454;2024-03-02T04:01:02;8.40;99.90
6538;DHT22;3302;52.508;13.454;2024-03-02T04:03:28;8.50;99.90
6538;DHT22;3302;52.508;13.454;2024-03-02T04:05:53;8.40;99.90
6538;DHT22;3302;52.508;13.454;2024-03-02T04:08:19;8.40;99.90
6538;DHT22;3302;52.508;13.454;2024-03-02T04:10:45;8.50;99.90
6538;DHT22;3302;52.508;13.454;2024-03-02T04:13:11;8.50;99.90
6538;DHT22;3302;52.508;13.454;2024-03-02T04:15:37;8.50;99.90
6538;DHT22;3302;52.508;13.454;2024-03-02T04:18:03;8.40;99.90
6538;DHT22;3302;52.508;13.454;2024-03-02T04:20:29;8.50;99.90
6538;DHT22;3302;52.508;13.454;2024-03-02T04:22:55;8.50;99.90
6538;DHT22;3302;52.508;13.454;2024-03-02T04:25:21;8.40;99.90
6538;DHT22;3302;52.508;13.454;2024-03-02T04:27:47;8.50;99.90
6538;DHT22;3302;52.508;13.454;2024-03-02T04:30:13;8.50;99.90
6538;DHT22;3302;52.508;13.454;2024-03-02T04:32:38;8.50;99.90
6538;DHT22;3302;52.508;13.454;2024-03-02T04:35:05;8.60;99.90
6538;DHT22;3302;52.508;13.454;2024-03-02T04:37:34;8.60;99.90
6538;DHT22;3302;52.508;13.454;2024-03-02T04:40:00;8.60;99.90
6538;DHT22;3302;52.508;13.454;2024-03-02T04:42:26;8.50;99.90
6538;DHT22;3302;52.508;13.454;2024-03-02T04:44:51;8.50;99.90
6538;DHT22;3302;52.508;13.454;2024-03-02T04:47:17;8.60;99.90
6538;DHT22;3302;52.508;13.454;2024-03-02T04:49:43;8.50;99.90
6538;DHT22;3302;52.508;13.454;2024-03-02T04:52:09;8.50;99.90
6538;DHT22;3302;52.508;13.454;2024-03-02T04:54:35;8.60;99.90
6538;DHT22;3302;52.508;13.454;2024-03-02T04:57:23;8.60;99.90
6538;DHT22;3302;52.508;13.454;2024-03-02T04:59:49;8.60;99.90
6538;DHT22;3302;52.508;13.454;2024-03-02T05:02:15;8.60;99.90
6538;DHT22;3302;52.508;13.454;2024-03-02T05:04:40;8.50;99.90
6538;DHT22;3302;52.508;13.454;2024-03-02T05:07:07;8.50;99.90
6538;DHT22;3302;52.508;13.454;2024-03-02T05:09:33;8.50;99.90
6538;DHT22;3302;52.508;13.454;2024-03-02T05:11:59;8.50;99.90
6538;DHT22;3302;52.508;13.454;2024-03-02T05:14:41;8.50;99.90
6538;DHT22;3302;52.508;13.454;2024-03-02T05:17:07;8.50;99.90
6538;DHT22;3302;52.508;13.454;2024-03-02T05:19:32;8.50;99.90
6538;DHT22;3302;52.508;13.454;2024-03-02T05:21:58;8.50;99.90
6538;DHT22;3302;52.508;13.454;2024-03-02T05:24:24;8.50;99.90
6538;DHT22;3302;52.508;13.454;2024-03-02T05:26:53;8.50;99.90
6538;DHT22;3302;52.508;13.454;2024-03-02T05:29:18;8.50;99.90
6538;DHT22;3302;52.508;13.454;2024-03-02T05:31:44;8.50;99.90
6538;DHT22;3302;52.508;13.454;2024-03-02T05:34:10;8.50;99.90
6538;DHT22;3302;52.508;13.454;2024-03-02T05:36:36;8.50;99.90
6538;DHT22;3302;52.508;13.454;2024-03-02T05:39:05;8.50;99.90
6538;DHT22;3302;52.508;13.454;2024-03-02T05:41:35;8.50;99.90
6538;DHT22;3302;52.508;13.454;2024-03-02T05:44:01;8.50;99.90
6538;DHT22;3302;52.508;13.454;2024-03-02T05:46:27;8.50;99.90
6538;DHT22;3302;52.508;13.454;2024-03-02T05:48:53;8.60;99.90
6538;DHT22;3302;52.508;13.454;2024-03-02T05:51:19;8.60;99.90
6538;DHT22;3302;52.508;13.454;2024-03-02T05:53:45;8.60;99.90
6538;DHT22;3302;52.508;13.454;2024-03-02T05:56:10;8.60;99.90
6538;DHT22;3302;52.508;13.454;2024-03-02T05:58:38;8.60;99.90
6538;DHT22;3302;52.508;13.454;2024-03-02T06:01:22;8.60;99.90
6538;DHT22;3302;52.508;13.454;2024-03-02T06:03:57;8.60;99.90
6538;DHT22;3302;52.508;13.454;2024-03-02T06:06:24;8.50;99.90
6538;DHT22;3302;52.508;13.454;2024-03-02T06:08:50;8.50;99.90
6538;DHT22;3302;52.508;13.454;2024-03-02T06:11:16;8.50;99.90
6538;DHT22;3302;52.508;13.454;2024-03-02T06:13:42;8.60;99.90
6538;DHT22;3302;52.508;13.454;2024-03-02T06:16:08;8.50;99.90
6538;DHT22;3302;52.508;13.454;2024-03-02T06:18:34;8.50;99.90
6538;DHT22;3302;52.508;13.454;2024-03-02T06:21:00;8.60;99.90
6538;DHT22;3302;52.508;13.454;2024-03-02T06:23:29;8.50;99.90
6538;DHT22;3302;52.508;13.454;2024-03-02T06:25:55;8.50;99.90
6538;DHT22;3302;52.508;13.454;2024-03-02T06:28:20;8.50;99.90
6538;DHT22;3302;52.508;13.454;2024-03-02T06:30:46;8.50;99.90
6538;DHT22;3302;52.508;13.454;2024-03-02T06:33:12;8.60;99.90
6538;DHT22;3302;52.508;13.454;2024-03-02T06:35:38;8.60;99.90
6538;DHT22;3302;52.508;13.454;2024-03-02T06:38:04;8.60;99.90
6538;DHT22;3302;52.508;13.454;2024-03-02T06:40:30;8.60;99.90
6538;DHT22;3302;52.508;13.454;2024-03-02T06:42:56;8.50;99.90
6538;DHT22;3302;52.508;13.454;2024-03-02T06:45:22;8.50;99.90
6538;DHT22;3302;52.508;13.454;2024-03-02T06:47:47;8.50;99.90
6538;DHT22;3302;52.508;13.454;2024-03-02T06:50:13;8.50;99.90
6538;DHT22;3302;52.508;13.454;2024-03-02T06:52:39;8.50;99.90
6538;DHT22;3302;52.508;13.454;2024-03-02T06:55:06;8.50;99.90
6538;DHT22;3302;52.508;13.454;2024-03-02T06:57:31;8.40;99.90
6538;DHT22;3302;52.508;13.454;2024-03-02T06:59:57;8.40;99.90
6538;DHT22;3302;52.508;13.454;2024-03-02T07:02:24;8.40;99.90
6538;DHT22;3302;52.508;13.454;2024-03-02T07:04:53;8.50;99.90
6538;DHT22;3302;52.508;13.454;2024-03-02T07:07:19;8.40;99.90
6538;DHT22;3302;52.508;13.454;2024-03-02T07:09:45;8.40;99.90
6538;DHT22;3302;52.508;13.454;2024-03-02T07:12:11;8.40;99.90
6538;DHT22;3302;52.508;13.454;2024-03-02T07:14:36;8.50;99.90
6538;DHT22;3302;52.508;13.454;2024-03-02T07:17:21;8.50;99.90
6538;DHT22;3302;52.508;13.454;2024-03-02T07:19:47;8.40;99.90
6538;DHT22;3302;52.508;13.454;2024-03-02T07:22:13;8.40;99.90
6538;DHT22;3302;52.508;13.454;2024-03-02T07:24:42;8.40;99.90
6538;DHT22;3302;52.508;13.454;2024-03-02T07:27:09;8.40;99.90
6538;DHT22;3302;52.508;13.454;2024-03-02T07:29:36;8.40;99.90
6538;DHT22;3302;52.508;13.454;2024-03-02T07:32:01;8.40;99.90
6538;DHT22;3302;52.508;13.454;2024-03-02T07:34:27;8.50;99.90
6538;DHT22;3302;52.508;13.454;2024-03-02T07:36:53;8.50;99.90
6538;DHT22;3302;52.508;13.454;2024-03-02T07:39:19;8.40;99.90
6538;DHT22;3302;52.508;13.454;2024-03-02T07:41:46;8.40;99.90
6538;DHT22;3302;52.508;13.454;2024-03-02T07:44:12;8.40;99.90
6538;DHT22;3302;52.508;13.454;2024-03-02T07:46:42;8.40;99.90
6538;DHT22;3302;52.508;13.454;2024-03-02T07:49:08;8.40;99.90
6538;DHT22;3302;52.508;13.454;2024-03-02T07:51:34;8.40;99.90
6538;DHT22;3302;52.508;13.454;2024-03-02T07:54:00;8.50;99.90
6538;DHT22;3302;52.508;13.454;2024-03-02T07:56:26;8.50;99.90
6538;DHT22;3302;52.508;13.454;2024-03-02T07:58:52;8.50;99.90
6538;DHT22;3302;52.508;13.454;2024-03-02T08:01:18;8.40;99.90
6538;DHT22;3302;52.508;13.454;2024-03-02T08:03:44;8.40;99.90
6538;DHT22;3302;52.508;13.454;2024-03-02T08:06:14;8.50;99.90
6538;DHT22;3302;52.508;13.454;2024-03-02T08:08:41;8.50;99.90
6538;DHT22;3302;52.508;13.454;2024-03-02T08:11:06;8.50;99.90
6538;DHT22;3302;52.508;13.454;2024-03-02T08:13:32;8.50;99.90
6538;DHT22;3302;52.508;13.454;2024-03-02T08:15:58;8.50;99.90
6538;DHT22;3302;52.508;13.454;2024-03-02T08:18:24;8.50;99.90
6538;DHT22;3302;52.508;13.454;2024-03-02T08:20:50;8.50;99.90
6538;DHT22;3302;52.508;13.454;2024-03-02T08:23:16;8.60;99.90
6538;DHT22;3302;52.508;13.454;2024-03-02T08:25:42;8.50;99.90
6538;DHT22;3302;52.508;13.454;2024-03-02T08:28:08;8.50;99.90
6538;DHT22;3302;52.508;13.454;2024-03-02T08:30:34;8.60;99.90
6538;DHT22;3302;52.508;13.454;2024-03-02T08:33:00;8.60;99.90
6538;DHT22;3302;52.508;13.454;2024-03-02T08:35:26;8.60;99.90
6538;DHT22;3302;52.508;13.454;2024-03-02T08:37:51;8.60;99.90
6538;DHT22;3302;52.508;13.454;2024-03-02T08:40:17;8.60;99.90
6538;DHT22;3302;52.508;13.454;2024-03-02T08:42:43;8.60;99.90
6538;DHT22;3302;52.508;13.454;2024-03-02T08:45:09;8.70;99.90
6538;DHT22;3302;52.508;13.454;2024-03-02T08:47:35;8.70;99.90
6538;DHT22;3302;52.508;13.454;2024-03-02T08:50:01;8.60;99.90
6538;DHT22;3302;52.508;13.454;2024-03-02T08:52:28;8.70;99.90
6538;DHT22;3302;52.508;13.454;2024-03-02T08:54:54;8.70;99.90
6538;DHT22;3302;52.508;13.454;2024-03-02T08:57:19;8.80;99.90
6538;DHT22;3302;52.508;13.454;2024-03-02T08:59:45;8.70;99.90
6538;DHT22;3302;52.508;13.454;2024-03-02T09:02:11;8.70;99.90
6538;DHT22;3302;52.508;13.454;2024-03-02T09:04:37;8.80;99.90
6538;DHT22;3302;52.508;13.454;2024-03-02T09:07:03;8.80;99.90
6538;DHT22;3302;52.508;13.454;2024-03-02T09:09:29;8.80;99.90
6538;DHT22;3302;52.508;13.454;2024-03-02T09:11:54;8.80;99.90
6538;DHT22;3302;52.508;13.454;2024-03-02T09:14:23;8.90;99.90
6538;DHT22;3302;52.508;13.454;2024-03-02T09:16:49;8.90;99.90
6538;DHT22;3302;52.508;13.454;2024-03-02T09:19:15;8.90;99.90
6538;DHT22;3302;52.508;13.454;2024-03-02T09:21:42;8.90;99.90
6538;DHT22;3302;52.508;13.454;2024-03-02T09:24:09;8.90;99.90
6538;DHT22;3302;52.508;13.454;2024-03-02T09:26:35;9.00;99.90
6538;DHT22;3302;52.508;13.454;2024-03-02T09:29:01;9.00;99.90
6538;DHT22;3302;52.508;13.454;2024-03-02T09:31:27;9.00;99.90
6538;DHT22;3302;52.508;13.454;2024-03-02T09:33:53;9.00;99.90
6538;DHT22;3302;52.508;13.454;2024-03-02T09:36:19;9.00;99.90
6538;DHT22;3302;52.508;13.454;2024-03-02T09:38:46;9.00;99.90
6538;DHT22;3302;52.508;13.454;2024-03-02T09:41:12;9.00;99.90
6538;DHT22;3302;52.508;13.454;2024-03-02T09:43:39;9.10;99.90
6538;DHT22;3302;52.508;13.454;2024-03-02T09:46:05;9.10;99.90
6538;DHT22;3302;52.508;13.454;2024-03-02T09:48:31;9.10;99.90
6538;DHT22;3302;52.508;13.454;2024-03-02T09:50:59;9.10;99.90
6538;DHT22;3302;52.508;13.454;2024-03-02T09:53:25;9.20;99.90
6538;DHT22;3302;52.508;13.454;2024-03-02T09:55:52;9.40;99.90
6538;DHT22;3302;52.508;13.454;2024-03-02T09:58:19;9.30;99.90
6538;DHT22;3302;52.508;13.454;2024-03-02T10:00:45;9.30;99.90
6538;DHT22;3302;52.508;13.454;2024-03-02T10:03:12;9.40;99.90
6538;DHT22;3302;52.508;13.454;2024-03-02T10:05:38;9.40;99.90
6538;DHT22;3302;52.508;13.454;2024-03-02T10:08:04;9.50;99.90
6538;DHT22;3302;52.508;13.454;2024-03-02T10:10:37;9.50;99.90
6538;DHT22;3302;52.508;13.454;2024-03-02T10:13:06;9.60;99.90
6538;DHT22;3302;52.508;13.454;2024-03-02T10:15:33;9.70;99.90
6538;DHT22;3302;52.508;13.454;2024-03-02T10:17:59;9.70;99.90
6538;DHT22;3302;52.508;13.454;2024-03-02T10:20:26;9.70;99.90
6538;DHT22;3302;52.508;13.454;2024-03-02T10:22:54;9.80;99.90
6538;DHT22;3302;52.508;13.454;2024-03-02T10:25:33;9.90;99.90
6538;DHT22;3302;52.508;13.454;2024-03-02T10:28:00;10.00;99.90
6538;DHT22;3302;52.508;13.454;2024-03-02T10:30:27;10.10;99.90
6538;DHT22;3302;52.508;13.454;2024-03-02T10:32:54;10.20;99.90
6538;DHT22;3302;52.508;13.454;2024-03-02T10:35:21;10.10;99.90
6538;DHT22;3302;52.508;13.454;2024-03-02T10:37:52;10.10;99.90
6538;DHT22;3302;52.508;13.454;2024-03-02T10:40:21;10.10;99.90
6538;DHT22;3302;52.508;13.454;2024-03-02T10:42:51;10.20;99.90
6538;DHT22;3302;52.508;13.454;2024-03-02T10:45:19;10.20;99.90
6538;DHT22;3302;52.508;13.454;2024-03-02T10:47:47;10.30;99.90
6538;DHT22;3302;52.508;13.454;2024-03-02T10:50:13;10.40;99.90
6538;DHT22;3302;52.508;13.454;2024-03-02T10:52:39;10.40;99.90
6538;DHT22;3302;52.508;13.454;2024-03-02T10:55:06;10.40;99.90
6538;DHT22;3302;52.508;13.454;2024-03-02T11:00:14;10.50;99.90
6538;DHT22;3302;52.508;13.454;2024-03-02T11:02:51;10.70;99.90
6538;DHT22;3302;52.508;13.454;2024-03-02T11:05:26;10.70;99.90
6538;DHT22;3302;52.508;13.454;2024-03-02T11:08:02;10.70;99.90
6538;DHT22;3302;52.508;13.454;2024-03-02T11:10:35;10.80;99.90
6538;DHT22;3302;52.508;13.454;2024-03-02T11:13:05;10.80;99.90
6538;DHT22;3302;52.508;13.454;2024-03-02T11:15:35;10.70;99.90
6538;DHT22;3302;52.508;13.454;2024-03-02T11:18:04;10.80;99.90
6538;DHT22;3302;52.508;13.454;2024-03-02T11:20:36;10.80;99.90
6538;DHT22;3302;52.508;13.454;2024-03-02T11:23:08;10.70;99.90
6538;DHT22;3302;52.508;13.454;2024-03-02T11:25:34;10.90;99.90
6538;DHT22;3302;52.508;13.454;2024-03-02T11:28:02;10.90;99.90
6538;DHT22;3302;52.508;13.454;2024-03-02T11:33:01;11.00;99.90
6538;DHT22;3302;52.508;13.454;2024-03-02T11:35:52;11.10;99.90
6538;DHT22;3302;52.508;13.454;2024-03-02T11:38:18;11.00;99.90
6538;DHT22;3302;52.508;13.454;2024-03-02T11:40:44;11.10;99.90
6538;DHT22;3302;52.508;13.454;2024-03-02T11:43:11;11.10;99.90
6538;DHT22;3302;52.508;13.454;2024-03-02T11:45:37;11.10;99.90
6538;DHT22;3302;52.508;13.454;2024-03-02T11:48:09;11.10;99.90
6538;DHT22;3302;52.508;13.454;2024-03-02T11:50:47;11.10;99.90
6538;DHT22;3302;52.508;13.454;2024-03-02T11:53:14;11.20;99.90
6538;DHT22;3302;52.508;13.454;2024-03-02T11:55:40;11.30;99.90
6538;DHT22;3302;52.508;13.454;2024-03-02T11:58:09;11.40;99.90
6538;DHT22;3302;52.508;13.454;2024-03-02T12:00:35;11.40;99.90
6538;DHT22;3302;52.508;13.454;2024-03-02T12:05:27;11.50;99.90
6538;DHT22;3302;52.508;13.454;2024-03-02T12:08:02;11.60;99.90
6538;DHT22;3302;52.508;13.454;2024-03-02T12:10:28;11.70;99.90
6538;DHT22;3302;52.508;13.454;2024-03-02T12:12:58;11.80;99.90
6538;DHT22;3302;52.508;13.454;2024-03-02T12:15:27;11.80;99.90
6538;DHT22;3302;52.508;13.454;2024-03-02T12:17:59;12.00;99.90
6538;DHT22;3302;52.508;13.454;2024-03-02T12:20:27;12.10;99.90
6538;DHT22;3302;52.508;13.454;2024-03-02T12:22:56;12.10;99.90
6538;DHT22;3302;52.508;13.454;2024-03-02T12:25:24;11.90;99.90
6538;DHT22;3302;52.508;13.454;2024-03-02T12:27:52;12.10;99.90
6538;DHT22;3302;52.508;13.454;2024-03-02T12:30:19;12.20;99.90
6538;DHT22;3302;52.508;13.454;2024-03-02T12:32:45;12.20;99.90
6538;DHT22;3302;52.508;13.454;2024-03-02T12:35:12;12.20;99.90
6538;DHT22;3302;52.508;13.454;2024-03-02T12:37:48;12.20;99.90
6538;DHT22;3302;52.508;13.454;2024-03-02T12:40:14;12.30;99.90
6538;DHT22;3302;52.508;13.454;2024-03-02T12:42:41;12.30;99.90
6538;DHT22;3302;52.508;13.454;2024-03-02T12:45:10;12.40;99.90
6538;DHT22;3302;52.508;13.454;2024-03-02T12:47:37;12.30;99.90
6538;DHT22;3302;52.508;13.454;2024-03-02T12:50:05;12.30;99.90
6538;DHT22;3302;52.508;13.454;2024-03-02T12:52:32;12.50;99.90
6538;DHT22;3302;52.508;13.454;2024-03-02T12:55:02;12.40;99.90
6538;DHT22;3302;52.508;13.454;2024-03-02T12:57:30;12.40;99.90
6538;DHT22;3302;52.508;13.454;2024-03-02T13:00:03;12.50;99.90
6538;DHT22;3302;52.508;13.454;2024-03-02T13:02:36;12.80;99.60
6538;DHT22;3302;52.508;13.454;2024-03-02T13:05:03;12.80;99.30
6538;DHT22;3302;52.508;13.454;2024-03-02T13:07:29;12.80;99.50
6538;DHT22;3302;52.508;13.454;2024-03-02T13:09:56;12.90;99.20
6538;DHT22;3302;52.508;13.454;2024-03-02T13:12:23;12.60;98.90
6538;DHT22;3302;52.508;13.454;2024-03-02T13:14:51;12.80;99.10
6538;DHT22;3302;52.508;13.454;2024-03-02T13:17:18;12.80;99.00
6538;DHT22;3302;52.508;13.454;2024-03-02T13:19:58;12.80;99.10
6538;DHT22;3302;52.508;13.454;2024-03-02T13:22:24;12.90;98.10
6538;DHT22;3302;52.508;13.454;2024-03-02T13:24:51;12.90;98.60
6538;DHT22;3302;52.508;13.454;2024-03-02T13:27:17;12.90;98.50
6538;DHT22;3302;52.508;13.454;2024-03-02T13:29:49;12.80;98.30
6538;DHT22;3302;52.508;13.454;2024-03-02T13:32:15;12.80;98.20
6538;DHT22;3302;52.508;13.454;2024-03-02T13:34:41;12.90;98.40
6538;DHT22;3302;52.508;13.454;2024-03-02T13:37:07;12.90;98.10
6538;DHT22;3302;52.508;13.454;2024-03-02T13:39:33;12.80;98.50
6538;DHT22;3302;52.508;13.454;2024-03-02T13:42:09;13.00;98.50
6538;DHT22;3302;52.508;13.454;2024-03-02T13:44:36;12.90;98.30
6538;DHT22;3302;52.508;13.454;2024-03-02T13:47:02;12.80;97.80
6538;DHT22;3302;52.508;13.454;2024-03-02T13:49:28;12.80;98.20
6538;DHT22;3302;52.508;13.454;2024-03-02T13:52:07;12.90;98.00
6538;DHT22;3302;52.508;13.454;2024-03-02T13:54:37;13.10;98.00
6538;DHT22;3302;52.508;13.454;2024-03-02T13:57:05;13.10;97.40
6538;DHT22;3302;52.508;13.454;2024-03-02T13:59:30;12.90;97.50
6538;DHT22;3302;52.508;13.454;2024-03-02T14:01:56;12.90;97.90
6538;DHT22;3302;52.508;13.454;2024-03-02T14:04:22;13.00;98.10
6538;DHT22;3302;52.508;13.454;2024-03-02T14:06:48;13.10;98.00
6538;DHT22;3302;52.508;13.454;2024-03-02T14:09:14;13.30;96.90
6538;DHT22;3302;52.508;13.454;2024-03-02T14:11:40;13.30;96.30
6538;DHT22;3302;52.508;13.454;2024-03-02T14:14:06;13.30;96.00
6538;DHT22;3302;52.508;13.454;2024-03-02T14:16:32;13.20;95.90
6538;DHT22;3302;52.508;13.454;2024-03-02T14:18:57;13.20;96.00
6538;DHT22;3302;52.508;13.454;2024-03-02T14:21:25;13.00;96.30
6538;DHT22;3302;52.508;13.454;2024-03-02T14:23:50;13.10;96.40
6538;DHT22;3302;52.508;13.454;2024-03-02T14:26:16;13.20;95.70
6538;DHT22;3302;52.508;13.454;2024-03-02T14:28:43;13.10;95.70
6538;DHT22;3302;52.508;13.454;2024-03-02T14:31:09;13.10;95.90
6538;DHT22;3302;52.508;13.454;2024-03-02T14:33:34;13.20;96.20
6538;DHT22;3302;52.508;13.454;2024-03-02T14:36:01;13.20;96.30
6538;DHT22;3302;52.508;13.454;2024-03-02T14:38:27;13.20;96.40
6538;DHT22;3302;52.508;13.454;2024-03-02T14:40:52;13.30;96.60
6538;DHT22;3302;52.508;13.454;2024-03-02T14:43:18;13.20;96.60
6538;DHT22;3302;52.508;13.454;2024-03-02T14:45:44;13.30;96.80
6538;DHT22;3302;52.508;13.454;2024-03-02T14:48:10;13.20;96.40
6538;DHT22;3302;52.508;13.454;2024-03-02T14:50:36;13.20;96.50
6538;DHT22;3302;52.508;13.454;2024-03-02T14:53:02;13.20;96.60
6538;DHT22;3302;52.508;13.454;2024-03-02T14:55:27;13.20;96.90
6538;DHT22;3302;52.508;13.454;2024-03-02T14:57:53;13.20;97.00
6538;DHT22;3302;52.508;13.454;2024-03-02T15:00:19;13.00;97.10
6538;DHT22;3302;52.508;13.454;2024-03-02T15:02:45;13.20;97.30
6538;DHT22;3302;52.508;13.454;2024-03-02T15:05:11;13.20;96.70
6538;DHT22;3302;52.508;13.454;2024-03-02T15:07:36;13.20;96.10
6538;DHT22;3302;52.508;13.454;2024-03-02T15:10:04;13.20;96.00
6538;DHT22;3302;52.508;13.454;2024-03-02T15:12:30;13.00;95.60
6538;DHT22;3302;52.508;13.454;2024-03-02T15:14:57;13.00;95.70
6538;DHT22;3302;52.508;13.454;2024-03-02T15:17:23;13.00;95.80
6538;DHT22;3302;52.508;13.454;2024-03-02T15:19:48;13.00;95.90
6538;DHT22;3302;52.508;13.454;2024-03-02T15:22:14;13.00;95.90
6538;DHT22;3302;52.508;13.454;2024-03-02T15:24:40;13.10;96.20
6538;DHT22;3302;52.508;13.454;2024-03-02T15:27:06;13.20;96.50
6538;DHT22;3302;52.508;13.454;2024-03-02T15:29:34;13.20;96.30
6538;DHT22;3302;52.508;13.454;2024-03-02T15:32:00;13.20;96.30
6538;DHT22;3302;52.508;13.454;2024-03-02T15:34:26;13.10;96.50
6538;DHT22;3302;52.508;13.454;2024-03-02T15:36:52;13.10;97.00
6538;DHT22;3302;52.508;13.454;2024-03-02T15:39:18;13.00;97.40
6538;DHT22;3302;52.508;13.454;2024-03-02T15:41:44;13.00;97.60
6538;DHT22;3302;52.508;13.454;2024-03-02T15:44:11;13.00;97.60
6538;DHT22;3302;52.508;13.454;2024-03-02T15:46:37;12.90;97.50
6538;DHT22;3302;52.508;13.454;2024-03-02T15:49:03;12.90;97.80
6538;DHT22;3302;52.508;13.454;2024-03-02T15:51:31;12.90;97.90
6538;DHT22;3302;52.508;13.454;2024-03-02T15:53:58;12.80;98.00
6538;DHT22;3302;52.508;13.454;2024-03-02T15:56:24;12.60;97.90
6538;DHT22;3302;52.508;13.454;2024-03-02T15:58:50;12.60;98.20
6538;DHT22;3302;52.508;13.454;2024-03-02T16:01:16;12.50;98.40
6538;DHT22;3302;52.508;13.454;2024-03-02T16:03:42;12.50;98.50
6538;DHT22;3302;52.508;13.454;2024-03-02T16:06:08;12.40;98.60
6538;DHT22;3302;52.508;13.454;2024-03-02T16:08:33;12.40;98.90